Terminal Aerodrome Forecast
Issued by NWS

Home | Current Version | Previous Version | Text Only | Print | Product List | Glossary On
Versions: 1 2 3 4 5 6 7 8 9 10 11 12 13 14 15 16 17 18 19 20 21 22 23
000
FTUS41 KRLX 011733
TAFCKB
TAF
KCKB 011733Z 0118/0218 28007KT P6SM SCT060
     FM020000 28005KT P6SM SCT250
     FM020800 00000KT 6SM BR SCT250
     FM021000 00000KT 2SM BR SCT001
     FM021200 00000KT 5SM BR SCT250
     FM021300 21002KT P6SM SCT250
     FM021700 24006KT P6SM SCT050=

USA.gov is the U.S. government's official web portal to all federal, state and local government web resources and services.